createdAt,value
2018-12-14T00:01:05.094Z,33.90
2018-12-14T00:03:32.520Z,33.50
2018-12-14T00:05:59.947Z,33.50
2018-12-14T00:08:27.480Z,34.97
2018-12-14T00:10:54.907Z,33.67
2018-12-14T00:13:22.359Z,30.70
2018-12-14T00:15:50.242Z,33.20
2018-12-14T00:18:17.720Z,31.40
2018-12-14T00:20:45.193Z,34.50
2018-12-14T00:23:12.681Z,36.07
2018-12-14T00:25:40.919Z,35.00
2018-12-14T00:28:08.360Z,38.90
2018-12-14T00:30:36.153Z,34.58
2018-12-14T00:33:03.578Z,36.40
2018-12-14T00:35:31.259Z,34.53
2018-12-14T00:37:58.691Z,30.27
2018-12-14T00:40:26.175Z,29.27
2018-12-14T00:42:53.693Z,32.37
2018-12-14T00:45:21.123Z,34.13
2018-12-14T00:47:48.648Z,34.50
2018-12-14T00:50:16.093Z,30.72
2018-12-14T00:52:43.578Z,37.33
2018-12-14T00:55:11.022Z,38.65
2018-12-14T00:57:38.443Z,32.17
2018-12-14T01:00:05.881Z,37.75
2018-12-14T01:02:33.315Z,34.80
2018-12-14T01:05:00.760Z,33.77
2018-12-14T01:07:28.187Z,39.67
2018-12-14T01:09:55.616Z,34.15
2018-12-14T01:12:23.035Z,33.97
2018-12-14T01:14:50.463Z,38.28
2018-12-14T01:17:17.931Z,37.43
2018-12-14T01:19:45.368Z,34.13
2018-12-14T01:22:12.786Z,33.57
2018-12-14T01:24:40.220Z,38.13
2018-12-14T01:27:07.656Z,41.37
2018-12-14T01:29:35.122Z,37.48
2018-12-14T01:32:02.567Z,38.13
2018-12-14T01:34:30.084Z,35.68
2018-12-14T01:36:57.504Z,35.00
2018-12-14T01:39:24.933Z,36.55
2018-12-14T01:41:52.351Z,33.73
2018-12-14T01:44:19.795Z,36.53
2018-12-14T01:46:47.225Z,37.10
2018-12-14T01:49:14.675Z,34.73
2018-12-14T01:51:42.099Z,37.57
2018-12-14T01:54:09.527Z,37.67
2018-12-14T01:56:36.955Z,35.67
2018-12-14T01:59:04.389Z,40.70
2018-12-14T02:01:32.179Z,36.00
2018-12-14T02:03:59.603Z,33.53
2018-12-14T02:06:27.085Z,34.73
2018-12-14T02:08:54.515Z,36.57
2018-12-14T02:11:21.999Z,35.07
2018-12-14T02:13:49.432Z,38.13
2018-12-14T02:16:16.856Z,36.73
2018-12-14T02:18:44.283Z,35.10
2018-12-14T02:21:11.717Z,38.77
2018-12-14T02:23:39.148Z,31.53
2018-12-14T02:26:06.651Z,34.13
2018-12-14T02:28:34.087Z,30.13
2018-12-14T02:31:01.519Z,34.92
2018-12-14T02:33:28.944Z,32.90
2018-12-14T02:35:56.371Z,36.10
2018-12-14T02:38:23.792Z,33.63
2018-12-14T02:40:51.291Z,29.92
2018-12-14T02:43:20.163Z,34.80
2018-12-14T02:45:47.606Z,32.90
2018-12-14T02:48:15.028Z,33.15
2018-12-14T02:50:42.539Z,38.33
2018-12-14T02:53:09.959Z,38.08
2018-12-14T02:55:37.393Z,33.27
2018-12-14T02:58:04.820Z,35.30
2018-12-14T03:00:32.253Z,32.83
2018-12-14T03:03:00.302Z,32.85
2018-12-14T03:05:27.745Z,30.43
2018-12-14T03:07:55.172Z,32.17
2018-12-14T03:10:22.617Z,38.05
2018-12-14T03:12:50.055Z,33.00
2018-12-14T03:15:17.480Z,31.77
2018-12-14T03:17:44.906Z,36.47
2018-12-14T03:20:12.327Z,32.78
2018-12-14T03:22:39.880Z,32.37
2018-12-14T03:25:07.326Z,34.05
2018-12-14T03:27:34.821Z,29.40
2018-12-14T03:30:02.256Z,31.97
2018-12-14T03:32:29.684Z,35.30
2018-12-14T03:34:57.194Z,32.17
2018-12-14T03:37:24.656Z,32.27
2018-12-14T03:39:52.152Z,29.85
2018-12-14T03:42:19.590Z,35.60
2018-12-14T03:44:47.030Z,32.00
2018-12-14T03:47:14.453Z,34.77
2018-12-14T03:49:41.875Z,35.50
2018-12-14T03:52:09.402Z,30.93
2018-12-14T03:54:36.967Z,39.58
2018-12-14T03:57:04.388Z,37.77
2018-12-14T03:59:31.836Z,37.13
2018-12-14T04:01:59.277Z,34.50
2018-12-14T04:04:26.690Z,35.55
2018-12-14T04:06:54.124Z,32.00
2018-12-14T04:09:21.613Z,35.30
2018-12-14T04:11:49.048Z,35.80
2018-12-14T04:14:16.517Z,35.58
2018-12-14T04:16:43.950Z,39.23
2018-12-14T04:19:11.395Z,31.75
2018-12-14T04:21:38.914Z,36.93
2018-12-14T04:24:06.946Z,37.65
2018-12-14T04:26:34.383Z,34.87
2018-12-14T04:29:01.883Z,43.42
2018-12-14T04:31:29.318Z,39.03
2018-12-14T04:33:56.741Z,33.15
2018-12-14T04:36:24.255Z,41.63
2018-12-14T04:38:51.680Z,39.42
2018-12-14T04:41:19.160Z,32.30
2018-12-14T04:43:46.592Z,35.85
2018-12-14T04:46:14.078Z,32.87
2018-12-14T04:48:41.512Z,39.25
2018-12-14T04:51:08.955Z,36.53
2018-12-14T04:53:36.375Z,36.70
2018-12-14T04:56:03.802Z,36.63
2018-12-14T04:58:31.241Z,35.53
2018-12-14T05:00:58.730Z,33.43
2018-12-14T05:03:26.184Z,37.38
2018-12-14T05:05:53.641Z,34.30
2018-12-14T05:08:21.087Z,37.63
2018-12-14T05:10:48.518Z,39.73
2018-12-14T05:13:15.939Z,36.03
2018-12-14T05:15:43.379Z,41.60
2018-12-14T05:18:10.827Z,33.58
2018-12-14T05:20:38.264Z,39.00
2018-12-14T05:23:05.684Z,33.88
2018-12-14T05:25:33.205Z,36.73
2018-12-14T05:28:00.641Z,40.33
2018-12-14T05:30:28.116Z,41.37
2018-12-14T05:32:55.553Z,35.00
2018-12-14T05:35:23.021Z,44.77
2018-12-14T05:37:50.511Z,41.42
2018-12-14T05:40:17.948Z,37.37
2018-12-14T05:42:45.403Z,37.27
2018-12-14T05:45:12.857Z,37.80
2018-12-14T05:47:40.291Z,42.40
2018-12-14T05:50:07.708Z,37.13
2018-12-14T05:52:35.145Z,35.23
2018-12-14T05:55:02.585Z,41.17
2018-12-14T05:57:30.040Z,36.13
2018-12-14T05:59:57.462Z,41.27
2018-12-14T06:02:24.942Z,44.15
2018-12-14T06:04:52.360Z,40.33
2018-12-14T06:07:19.795Z,35.98
2018-12-14T06:09:47.214Z,38.20
2018-12-14T06:12:14.913Z,41.10
2018-12-14T06:14:42.460Z,41.70
2018-12-14T06:17:09.903Z,39.53
2018-12-14T06:19:37.888Z,40.00
2018-12-14T06:22:05.324Z,40.28
2018-12-14T06:24:33.266Z,40.23
2018-12-14T06:27:00.695Z,39.33
2018-12-14T06:29:28.123Z,38.83
2018-12-14T06:31:55.575Z,39.00
2018-12-14T06:34:23.003Z,42.23
2018-12-14T06:36:51.083Z,39.90
2018-12-14T06:39:18.754Z,39.03
2018-12-14T06:41:46.508Z,39.50
2018-12-14T06:44:14.314Z,40.38
2018-12-14T06:46:41.739Z,42.45
2018-12-14T06:49:09.166Z,38.10
2018-12-14T06:51:37.556Z,43.13
2018-12-14T06:54:05.212Z,44.50
2018-12-14T06:56:32.628Z,44.23
2018-12-14T06:59:00.051Z,36.57
2018-12-14T07:01:27.484Z,39.25
2018-12-14T07:03:54.907Z,34.73
2018-12-14T07:06:22.374Z,36.10
2018-12-14T07:08:49.808Z,34.87
2018-12-14T07:11:17.242Z,39.30
2018-12-14T07:13:44.663Z,35.23
2018-12-14T07:16:12.082Z,35.70
2018-12-14T07:18:39.507Z,37.00
2018-12-14T07:21:06.947Z,35.08
2018-12-14T07:23:34.414Z,39.83
2018-12-14T07:26:01.851Z,44.23
2018-12-14T07:28:29.287Z,35.47
2018-12-14T07:30:56.711Z,35.05
2018-12-14T07:33:24.140Z,42.17
2018-12-14T07:35:51.567Z,40.73
2018-12-14T07:38:19.007Z,41.47
2018-12-14T07:40:46.445Z,36.77
2018-12-14T07:43:13.867Z,39.63
2018-12-14T07:45:41.295Z,34.50
2018-12-14T07:48:08.802Z,35.97
2018-12-14T07:50:36.225Z,36.58
2018-12-14T07:53:09.120Z,35.27
2018-12-14T07:55:33.130Z,31.73
2018-12-14T07:58:00.566Z,30.10
2018-12-14T08:00:27.987Z,33.87
2018-12-14T08:02:55.494Z,31.52
2018-12-14T08:05:23.082Z,31.53
2018-12-14T08:07:50.526Z,30.52
2018-12-14T08:10:18.014Z,30.03
2018-12-14T08:12:45.487Z,31.90
2018-12-14T08:15:13.151Z,32.63
2018-12-14T08:17:40.599Z,26.80
2018-12-14T08:20:08.040Z,27.10
2018-12-14T08:22:35.466Z,29.50
2018-12-14T08:25:02.885Z,32.17
2018-12-14T08:27:30.386Z,36.00
2018-12-14T08:29:57.803Z,31.87
2018-12-14T08:32:25.244Z,36.90
2018-12-14T08:34:52.679Z,36.35
2018-12-14T08:37:20.118Z,35.37
2018-12-14T08:39:47.554Z,27.85
2018-12-14T08:42:15.112Z,35.73
2018-12-14T08:44:42.545Z,29.30
2018-12-14T08:47:10.040Z,29.37
2018-12-14T08:49:37.479Z,29.32
2018-12-14T08:52:04.972Z,37.40
2018-12-14T08:54:32.412Z,28.20
2018-12-14T08:56:59.849Z,32.03
2018-12-14T08:59:27.276Z,35.67
2018-12-14T09:01:54.717Z,30.67
2018-12-14T09:04:22.145Z,31.67
2018-12-14T09:06:49.603Z,31.62
2018-12-14T09:09:17.023Z,33.17
2018-12-14T09:11:44.451Z,31.70
2018-12-14T09:14:11.895Z,36.10
2018-12-14T09:16:39.333Z,31.33
2018-12-14T09:19:07.798Z,30.93
2018-12-14T09:21:35.263Z,33.60
2018-12-14T09:24:02.723Z,29.83
2018-12-14T09:26:30.156Z,31.25
2018-12-14T09:28:57.926Z,25.33
2018-12-14T09:31:25.500Z,28.10
2018-12-14T09:33:52.935Z,31.02
2018-12-14T09:36:20.372Z,25.63
2018-12-14T09:38:47.808Z,24.07
2018-12-14T09:41:16.332Z,26.40
2018-12-14T09:43:43.944Z,24.63
2018-12-14T09:46:11.375Z,26.73
2018-12-14T09:48:38.811Z,24.53
2018-12-14T09:51:12.161Z,24.17
2018-12-14T09:53:35.644Z,25.17
2018-12-14T09:56:03.161Z,31.47
2018-12-14T09:58:30.612Z,29.53
2018-12-14T10:00:58.047Z,27.32
2018-12-14T10:03:25.489Z,28.33
2018-12-14T10:05:52.911Z,29.82
2018-12-14T10:08:20.382Z,22.97
2018-12-14T10:10:48.051Z,27.05
2018-12-14T10:13:15.736Z,28.23
2018-12-14T10:15:43.171Z,24.90
2018-12-14T10:18:10.599Z,30.43
2018-12-14T10:20:38.036Z,23.57
2018-12-14T10:23:05.500Z,27.55
2018-12-14T10:25:32.918Z,25.50
2018-12-14T10:28:00.370Z,24.90
2018-12-14T10:30:28.491Z,27.07
2018-12-14T10:32:56.044Z,30.23
2018-12-14T10:35:23.479Z,26.50
2018-12-14T10:37:50.911Z,28.17
2018-12-14T10:40:18.415Z,25.93
2018-12-14T10:42:45.885Z,29.60
2018-12-14T10:45:13.327Z,29.87
2018-12-14T10:47:40.792Z,26.10
2018-12-14T10:50:08.227Z,29.30
2018-12-14T10:52:35.811Z,30.72
2018-12-14T10:55:03.247Z,30.60
2018-12-14T10:57:30.807Z,28.47
2018-12-14T10:59:58.247Z,26.83
2018-12-14T11:02:25.739Z,26.67
2018-12-14T11:04:53.172Z,26.25
2018-12-14T14:01:19.704Z,28.20
2018-12-14T14:03:47.273Z,29.53
2018-12-14T14:06:14.706Z,32.00
2018-12-14T14:08:42.147Z,29.13
2018-12-14T14:11:09.604Z,34.08
2018-12-14T14:13:37.046Z,32.27
2018-12-14T14:16:04.559Z,31.77
2018-12-14T14:18:31.993Z,25.03
2018-12-14T14:20:59.461Z,28.00
2018-12-14T14:23:26.892Z,27.73
2018-12-14T14:25:54.352Z,25.88
2018-12-14T14:28:22.107Z,22.07
2018-12-14T14:30:49.548Z,27.60
2018-12-14T14:33:16.988Z,27.95
2018-12-14T14:35:44.418Z,24.83
2018-12-14T14:38:11.844Z,27.58
2018-12-14T14:40:39.277Z,23.23
2018-12-14T14:43:06.716Z,25.32
2018-12-14T14:45:34.152Z,25.63
2018-12-14T14:48:01.686Z,26.35
2018-12-14T14:50:29.100Z,25.47
2018-12-14T14:52:56.533Z,24.15
2018-12-14T14:55:23.968Z,23.70
2018-12-14T14:57:51.766Z,22.70
2018-12-14T15:00:19.201Z,31.80
2018-12-14T15:02:46.640Z,30.77
2018-12-14T15:05:14.084Z,38.48
2018-12-14T15:07:41.561Z,35.73
2018-12-14T15:10:09.002Z,37.70
2018-12-14T15:12:36.471Z,39.10
2018-12-14T15:15:06.765Z,38.17
2018-12-14T15:17:33.313Z,43.33
2018-12-14T15:20:00.758Z,40.83
2018-12-14T15:22:28.176Z,40.67
2018-12-14T15:24:55.604Z,41.18
2018-12-14T15:27:23.040Z,37.40
2018-12-14T15:29:50.476Z,36.53
2018-12-14T15:32:18.456Z,41.83
2018-12-14T15:34:45.892Z,44.83
2018-12-14T15:37:13.322Z,41.85
2018-12-14T15:39:40.755Z,46.10
2018-12-14T15:42:08.209Z,45.52
2018-12-14T15:44:35.712Z,42.77
2018-12-14T15:47:03.193Z,43.73
2018-12-14T15:49:30.631Z,43.13
2018-12-14T15:51:58.082Z,44.07
2018-12-14T15:54:25.515Z,45.12
2018-12-14T15:56:52.940Z,45.23
2018-12-14T15:59:21.091Z,44.60
2018-12-14T16:01:48.801Z,50.93
2018-12-14T16:04:16.250Z,46.25
2018-12-14T16:06:43.692Z,44.67
2018-12-14T16:09:11.129Z,47.10
2018-12-14T16:11:38.572Z,46.40
2018-12-14T16:14:06.248Z,45.47
2018-12-14T16:16:33.689Z,44.25
2018-12-14T16:19:01.194Z,42.97
2018-12-14T16:21:28.649Z,42.47
2018-12-14T16:23:56.085Z,45.12
2018-12-14T16:26:23.516Z,46.43
2018-12-14T16:28:51.002Z,39.23
2018-12-14T16:31:18.473Z,41.63
2018-12-14T16:33:45.908Z,46.58
2018-12-14T16:36:13.463Z,45.03
2018-12-14T16:38:40.899Z,39.45
2018-12-14T16:41:08.325Z,42.33
2018-12-14T16:43:35.766Z,41.73
2018-12-14T16:46:03.208Z,47.97
2018-12-14T16:48:30.658Z,46.10
2018-12-14T16:50:58.092Z,40.67
2018-12-14T16:53:25.519Z,45.27
2018-12-14T16:55:52.961Z,38.25
2018-12-14T16:58:20.470Z,41.77
2018-12-14T17:00:47.927Z,48.83
2018-12-14T17:03:15.368Z,41.27
2018-12-14T17:05:42.809Z,40.40
2018-12-14T17:08:10.288Z,42.80
2018-12-14T17:10:37.724Z,42.13
2018-12-14T17:13:05.158Z,43.52
2018-12-14T17:15:33.387Z,40.63
2018-12-14T17:18:01.215Z,40.67
2018-12-14T17:20:28.665Z,45.95
2018-12-14T17:22:56.103Z,44.20
2018-12-14T17:25:23.525Z,48.78
2018-12-14T17:27:50.962Z,38.03
2018-12-14T17:30:18.393Z,43.65
2018-12-14T17:32:45.836Z,44.17
2018-12-14T17:35:13.272Z,41.35
2018-12-14T17:37:40.702Z,48.60
2018-12-14T17:40:08.144Z,45.28
2018-12-14T17:42:35.590Z,41.50
2018-12-14T17:45:03.033Z,44.93
2018-12-14T17:47:30.468Z,42.87
2018-12-14T17:49:57.908Z,46.58
2018-12-14T17:52:25.425Z,49.43
2018-12-14T17:54:52.874Z,43.00
2018-12-14T17:57:20.312Z,43.20
2018-12-14T17:59:47.745Z,49.07
2018-12-14T18:02:15.223Z,38.42
2018-12-14T18:04:42.707Z,46.03
2018-12-14T18:07:10.142Z,43.00
2018-12-14T18:09:37.568Z,39.97
2018-12-14T18:12:05.045Z,40.70
2018-12-14T18:14:32.485Z,43.83
2018-12-14T18:16:59.937Z,44.43
2018-12-14T18:19:27.380Z,40.55
2018-12-14T18:21:54.812Z,40.60
2018-12-14T18:24:22.242Z,30.68
2018-12-14T18:26:49.675Z,38.53
2018-12-14T18:29:17.113Z,38.42
2018-12-14T18:31:44.546Z,39.40
2018-12-14T18:34:11.997Z,39.08
2018-12-14T18:36:39.437Z,40.67
2018-12-14T18:39:06.872Z,35.23
2018-12-14T18:41:34.316Z,36.63
2018-12-14T18:44:01.914Z,41.03
2018-12-14T18:46:29.318Z,40.92
2018-12-14T18:48:56.749Z,33.40
2018-12-14T18:51:24.190Z,30.97
2018-12-14T18:53:56.236Z,36.27
2018-12-14T18:56:23.809Z,39.20
2018-12-14T18:58:51.318Z,36.23
2018-12-14T19:01:18.790Z,35.00
2018-12-14T19:03:46.226Z,37.60
2018-12-14T19:06:13.665Z,35.83
2018-12-14T19:08:41.100Z,30.13
2018-12-14T19:11:08.528Z,35.30
2018-12-14T19:13:35.969Z,34.73
2018-12-14T19:16:03.402Z,29.48
2018-12-14T19:18:30.843Z,33.33
2018-12-14T19:20:58.285Z,32.85
2018-12-14T19:23:25.737Z,30.43
2018-12-14T19:25:53.240Z,29.47
2018-12-14T19:28:20.687Z,30.80
2018-12-14T19:30:48.121Z,34.30
2018-12-14T19:33:15.565Z,31.55
2018-12-14T19:35:43.017Z,34.60
2018-12-14T19:38:10.526Z,30.85
2018-12-14T19:40:37.950Z,32.43
2018-12-14T19:43:05.414Z,36.10
2018-12-14T19:45:32.857Z,32.17
2018-12-14T19:48:00.288Z,35.60
2018-12-14T19:50:27.725Z,36.83
2018-12-14T19:52:55.162Z,32.20
2018-12-14T19:55:22.600Z,36.83
2018-12-14T19:57:50.033Z,32.57
2018-12-14T20:00:17.459Z,21.55
2018-12-14T20:02:44.905Z,32.83
2018-12-14T20:05:12.347Z,37.05
2018-12-14T20:07:39.781Z,39.67
2018-12-14T20:10:07.212Z,30.62
2018-12-14T20:12:34.652Z,37.53
2018-12-14T20:15:02.161Z,34.03
2018-12-14T20:17:29.617Z,36.03
2018-12-14T20:19:57.122Z,32.63
2018-12-14T20:24:58.657Z,40.37
2018-12-14T20:27:26.101Z,35.28
2018-12-14T20:29:53.557Z,33.40
2018-12-14T20:32:21.016Z,35.47
2018-12-14T20:34:48.449Z,35.50
2018-12-14T20:37:15.902Z,30.17
2018-12-14T20:39:43.334Z,29.92
2018-12-14T20:42:10.787Z,31.43
2018-12-14T20:44:38.224Z,33.92
2018-12-14T20:47:05.649Z,33.20
2018-12-14T20:49:33.101Z,31.73
2018-12-14T20:52:00.540Z,31.03
2018-12-14T20:54:28.060Z,29.53
2018-12-14T20:56:55.522Z,31.63
2018-12-14T20:59:22.952Z,31.03
2018-12-14T21:01:50.396Z,34.10
2018-12-14T21:04:17.850Z,34.37
2018-12-14T21:06:45.300Z,35.17
2018-12-14T21:09:12.756Z,31.87
2018-12-14T21:11:40.245Z,31.50
2018-12-14T21:14:07.693Z,37.10
2018-12-14T21:16:35.130Z,37.07
2018-12-14T21:19:02.584Z,30.62
2018-12-14T21:21:30.074Z,31.53
2018-12-14T21:23:57.549Z,30.70
2018-12-14T21:26:24.978Z,34.97
2018-12-14T21:28:52.444Z,33.07
2018-12-14T21:31:19.877Z,30.97
2018-12-14T21:33:47.313Z,26.33
2018-12-14T21:36:14.752Z,29.35
2018-12-14T21:38:42.192Z,31.13
2018-12-14T21:41:09.641Z,26.95
2018-12-14T21:43:37.082Z,27.90
2018-12-14T21:46:04.525Z,29.40
2018-12-14T21:48:31.982Z,26.50
2018-12-14T21:50:59.429Z,26.12
2018-12-14T21:53:26.873Z,27.57
2018-12-14T21:55:54.307Z,22.50
2018-12-14T21:58:21.748Z,20.17
2018-12-14T22:00:49.264Z,24.63
2018-12-14T22:03:16.706Z,27.70
2018-12-14T22:05:44.143Z,25.00
2018-12-14T22:08:11.581Z,25.12
2018-12-14T22:10:39.018Z,22.73
2018-12-14T22:13:06.449Z,22.73
2018-12-14T22:15:33.885Z,21.47
2018-12-14T22:18:01.345Z,23.67
2018-12-14T22:20:28.777Z,21.13
2018-12-14T22:22:56.221Z,21.45
2018-12-14T22:25:23.685Z,26.70
2018-12-14T22:27:52.189Z,22.85
2018-12-14T22:30:19.757Z,23.00
2018-12-14T22:32:47.209Z,24.90
2018-12-14T22:35:14.680Z,23.98
2018-12-14T22:37:42.117Z,26.53
2018-12-14T22:40:09.560Z,26.25
2018-12-14T22:42:36.994Z,26.23
2018-12-14T22:45:04.436Z,17.77
2018-12-14T22:47:31.881Z,23.60
2018-12-14T22:49:59.330Z,20.43
2018-12-14T22:52:26.769Z,24.90
2018-12-14T22:54:54.350Z,24.70
2018-12-14T22:57:21.790Z,27.35
2018-12-14T22:59:49.226Z,23.97
2018-12-14T23:02:16.652Z,23.77
2018-12-14T23:04:44.115Z,29.97
2018-12-14T23:07:11.557Z,25.92
2018-12-14T23:09:38.998Z,29.23
2018-12-14T23:12:06.436Z,29.35
2018-12-14T23:14:33.935Z,28.27
2018-12-14T23:17:01.397Z,30.48
2018-12-14T23:19:28.834Z,27.97
2018-12-14T23:21:56.264Z,33.58
2018-12-14T23:24:23.698Z,30.17
2018-12-14T23:26:51.184Z,32.63
2018-12-14T23:29:18.635Z,31.43
2018-12-14T23:31:46.065Z,30.23
2018-12-14T23:34:13.500Z,28.67
2018-12-14T23:36:40.942Z,27.03
2018-12-14T23:39:08.385Z,30.62
2018-12-14T23:41:35.825Z,28.97
2018-12-14T23:44:03.256Z,25.37
2018-12-14T23:46:30.689Z,34.83
2018-12-14T23:48:58.137Z,31.33
2018-12-14T23:51:25.572Z,30.63
2018-12-14T23:53:53.031Z,28.62
2018-12-14T23:56:20.464Z,29.60
2018-12-14T23:58:47.901Z,30.02
